createdAt,value
2023-05-01T00:00:30.082Z,18.61
2023-05-01T00:03:00.856Z,18.61
2023-05-01T00:05:31.858Z,18.62
2023-05-01T00:08:04.529Z,18.57
2023-05-01T00:10:38.108Z,18.52
2023-05-01T00:13:08.621Z,18.51
2023-05-01T00:15:43.410Z,18.52
2023-05-01T00:18:15.657Z,18.54
2023-05-01T00:20:48.700Z,18.57
2023-05-01T00:23:19.241Z,18.58
2023-05-01T00:25:50.148Z,18.51
2023-05-01T00:28:21.879Z,18.54
2023-05-01T00:30:53.659Z,18.58
2023-05-01T00:33:24.434Z,18.57
2023-05-01T00:35:54.802Z,18.54
2023-05-01T00:38:26.522Z,18.72
2023-05-01T00:40:58.365Z,18.73
2023-05-01T00:43:29.331Z,18.68
2023-05-01T00:45:59.432Z,18.62
2023-05-01T00:48:30.546Z,18.57
2023-05-01T00:51:03.736Z,18.55
2023-05-01T00:53:36.329Z,18.61
2023-05-01T00:56:07.872Z,18.58
2023-05-01T00:58:40.719Z,18.50
2023-05-01T01:01:11.510Z,18.44
2023-05-01T01:03:42.871Z,18.43
2023-05-01T01:06:47.280Z,18.30
2023-05-01T01:09:44.830Z,18.31
2023-05-01T01:12:16.800Z,18.36
2023-05-01T01:14:52.598Z,18.48
2023-05-01T01:18:06.468Z,18.51
2023-05-01T01:21:03.753Z,18.48
2023-05-01T01:23:43.759Z,18.41
2023-05-01T01:26:33.293Z,18.40
2023-05-01T01:29:38.020Z,18.33
2023-05-01T01:32:46.738Z,18.34
2023-05-01T01:35:28.896Z,18.33
2023-05-01T01:38:21.237Z,18.24
2023-05-01T01:41:27.988Z,18.26
2023-05-01T01:44:02.746Z,18.29
2023-05-01T01:46:39.476Z,18.36
2023-05-01T01:49:19.475Z,18.31
2023-05-01T01:51:53.773Z,18.30
2023-05-01T01:54:35.020Z,18.27
2023-05-01T01:57:09.715Z,18.24
2023-05-01T01:59:42.308Z,18.26
2023-05-01T02:02:13.753Z,18.23
2023-05-01T02:04:47.228Z,18.18
2023-05-01T02:07:19.069Z,18.17
2023-05-01T02:09:51.983Z,18.24
2023-05-01T02:12:24.837Z,18.26
2023-05-01T02:14:58.140Z,18.23
2023-05-01T02:17:30.587Z,18.21
2023-05-01T02:20:02.154Z,18.14
2023-05-01T02:22:34.924Z,18.18
2023-05-01T02:25:06.362Z,18.16
2023-05-01T02:27:46.566Z,18.18
2023-05-01T02:30:19.974Z,18.29
2023-05-01T02:32:50.748Z,18.09
2023-05-01T02:35:22.772Z,18.06
2023-05-01T02:37:53.913Z,18.06
2023-05-01T02:40:23.938Z,18.12
2023-05-01T02:42:55.298Z,18.06
2023-05-01T02:45:27.914Z,18.03
2023-05-01T02:48:01.026Z,17.94
2023-05-01T02:50:32.223Z,17.85
2023-05-01T02:53:04.268Z,17.99
2023-05-01T02:55:49.615Z,18.04
2023-05-01T02:58:21.612Z,18.02
2023-05-01T03:00:52.053Z,18.03
2023-05-01T03:03:23.466Z,18.07
2023-05-01T03:05:54.499Z,18.02
2023-05-01T03:08:24.787Z,18.00
2023-05-01T03:10:55.603Z,17.92
2023-05-01T03:13:28.100Z,18.00
2023-05-01T03:15:59.512Z,18.02
2023-05-01T03:18:29.774Z,17.97
2023-05-01T03:20:59.648Z,17.97
2023-05-01T03:23:30.812Z,17.86
2023-05-01T03:26:02.567Z,17.81
2023-05-01T03:28:33.647Z,17.83
2023-05-01T03:31:04.070Z,17.87
2023-05-01T03:33:35.134Z,17.78
2023-05-01T03:36:07.186Z,17.78
2023-05-01T03:38:38.502Z,17.76
2023-05-01T03:41:14.352Z,17.73
2023-05-01T03:44:03.338Z,17.71
2023-05-01T03:46:46.370Z,17.82
2023-05-01T03:49:23.387Z,17.90
2023-05-01T03:51:54.885Z,17.89
2023-05-01T03:54:27.474Z,17.87
2023-05-01T03:57:02.568Z,17.81
2023-05-01T03:59:33.585Z,17.66
2023-05-01T04:02:06.209Z,17.59
2023-05-01T04:04:39.458Z,17.65
2023-05-01T04:07:10.812Z,17.62
2023-05-01T04:09:41.178Z,17.61
2023-05-01T04:12:11.051Z,17.58
2023-05-01T04:14:43.115Z,17.55
2023-05-01T04:17:14.433Z,17.56
2023-05-01T04:19:45.429Z,17.45
2023-05-01T04:22:15.703Z,17.35
2023-05-01T04:24:46.807Z,17.46
2023-05-01T04:27:17.592Z,17.53
2023-05-01T04:29:47.846Z,17.48
2023-05-01T04:32:18.623Z,17.35
2023-05-01T04:34:49.470Z,17.30
2023-05-01T04:37:21.087Z,17.17
2023-05-01T04:39:52.091Z,16.95
2023-05-01T04:42:24.330Z,16.91
2023-05-01T04:44:55.257Z,16.87
2023-05-01T04:47:27.634Z,16.81
2023-05-01T04:49:58.063Z,16.66
2023-05-01T04:52:28.253Z,16.72
2023-05-01T04:55:02.033Z,16.80
2023-05-01T04:57:35.812Z,16.79
2023-05-01T05:00:09.703Z,16.81
2023-05-01T05:02:48.783Z,16.95
2023-05-01T05:05:19.559Z,16.99
2023-05-01T05:07:52.450Z,17.02
2023-05-01T05:10:48.885Z,17.08
2023-05-01T05:13:30.112Z,17.06
2023-05-01T05:16:07.960Z,17.10
2023-05-01T05:18:38.887Z,17.07
2023-05-01T05:21:12.376Z,17.03
2023-05-01T05:23:49.263Z,17.07
2023-05-01T05:26:19.762Z,17.00
2023-05-01T05:28:52.854Z,16.88
2023-05-01T05:31:23.572Z,16.91
2023-05-01T05:33:53.440Z,16.90
2023-05-01T05:36:28.852Z,16.91
2023-05-01T05:39:00.532Z,16.88
2023-05-01T05:41:31.168Z,16.84
2023-05-01T05:44:04.264Z,16.84
2023-05-01T05:46:35.547Z,16.87
2023-05-01T05:49:06.520Z,16.84
2023-05-01T05:51:36.366Z,16.84
2023-05-01T05:54:08.915Z,16.91
2023-05-01T05:56:39.765Z,16.88
2023-05-01T05:59:10.024Z,16.80
2023-05-01T06:01:42.388Z,16.84
2023-05-01T06:04:13.043Z,16.81
2023-05-01T06:06:45.712Z,16.73
2023-05-01T06:09:18.393Z,16.70
2023-05-01T06:11:49.488Z,16.60
2023-05-01T06:14:20.204Z,16.57
2023-05-01T06:16:50.979Z,16.52
2023-05-01T06:19:21.631Z,16.52
2023-05-01T06:21:55.290Z,16.51
2023-05-01T06:24:25.792Z,16.48
2023-05-01T06:27:01.358Z,16.44
2023-05-01T06:29:32.494Z,16.45
2023-05-01T06:32:02.460Z,16.45
2023-05-01T06:34:33.086Z,16.42
2023-05-01T06:37:06.289Z,16.45
2023-05-01T06:39:37.481Z,16.46
2023-05-01T06:42:08.886Z,16.48
2023-05-01T06:44:42.058Z,16.44
2023-05-01T06:47:13.275Z,16.36
2023-05-01T06:49:44.840Z,16.32
2023-05-01T06:52:14.764Z,16.25
2023-05-01T06:54:44.976Z,16.29
2023-05-01T06:57:15.221Z,16.26
2023-05-01T06:59:45.229Z,16.22
2023-05-01T07:02:15.665Z,16.28
2023-05-01T07:04:46.521Z,16.29
2023-05-01T07:07:17.007Z,16.29
2023-05-01T07:09:47.096Z,16.26
2023-05-01T07:12:19.171Z,16.22
2023-05-01T07:14:50.333Z,16.16
2023-05-01T07:17:21.843Z,16.19
2023-05-01T07:19:51.758Z,16.16
2023-05-01T07:22:22.548Z,16.22
2023-05-01T07:24:53.377Z,16.24
2023-05-01T07:27:23.120Z,16.42
2023-05-01T07:29:53.552Z,16.44
2023-05-01T07:32:23.344Z,16.55
2023-05-01T07:34:54.396Z,16.69
2023-05-01T07:37:25.605Z,16.63
2023-05-01T07:39:56.174Z,16.67
2023-05-01T07:42:31.009Z,16.86
2023-05-01T07:45:02.146Z,16.81
2023-05-01T07:47:32.938Z,16.69
2023-05-01T07:50:03.512Z,16.77
2023-05-01T07:52:34.502Z,16.87
2023-05-01T07:55:05.587Z,16.86
2023-05-01T07:57:37.495Z,16.81
2023-05-01T08:00:09.302Z,16.65
2023-05-01T08:02:45.564Z,16.59
2023-05-01T08:05:15.850Z,16.56
2023-05-01T08:07:46.971Z,16.57
2023-05-01T08:10:17.656Z,16.52
2023-05-01T08:12:47.463Z,16.52
2023-05-01T08:15:18.479Z,16.55
2023-05-01T08:17:50.100Z,16.52
2023-05-01T08:20:20.539Z,16.45
2023-05-01T08:22:51.087Z,16.42
2023-05-01T08:25:21.254Z,16.35
2023-05-01T08:27:51.345Z,16.39
2023-05-01T08:30:22.324Z,16.44
2023-05-01T08:32:52.682Z,16.45
2023-05-01T08:35:23.910Z,16.38
2023-05-01T08:37:54.040Z,16.38
2023-05-01T08:40:27.456Z,16.38
2023-05-01T08:42:58.432Z,16.35
2023-05-01T08:45:32.222Z,16.42
2023-05-01T08:48:04.104Z,16.46
2023-05-01T08:50:40.448Z,16.44
2023-05-01T08:53:15.082Z,16.42
2023-05-01T08:55:48.951Z,16.41
2023-05-01T08:58:21.400Z,16.41
2023-05-01T09:00:51.721Z,16.33
2023-05-01T09:03:23.262Z,16.25
2023-05-01T09:05:55.519Z,16.08
2023-05-01T09:08:25.505Z,16.05
2023-05-01T09:10:58.171Z,16.06
2023-05-01T09:13:28.809Z,16.04
2023-05-01T09:15:59.057Z,16.02
2023-05-01T09:18:29.988Z,15.97
2023-05-01T09:21:00.404Z,15.94
2023-05-01T09:26:28.101Z,15.97
2023-05-01T09:28:59.458Z,16.01
2023-05-01T09:31:33.461Z,15.98
2023-05-01T09:34:06.194Z,15.97
2023-05-01T09:36:38.669Z,15.95
2023-05-01T09:39:09.159Z,15.93
2023-05-01T09:41:53.673Z,15.93
2023-05-01T09:44:25.706Z,15.91
2023-05-01T09:46:56.556Z,15.87
2023-05-01T09:49:48.458Z,15.84
2023-05-01T09:52:19.232Z,15.90
2023-05-01T09:54:49.985Z,15.94
2023-05-01T09:57:39.382Z,15.98
2023-05-01T10:00:11.435Z,15.98
2023-05-01T10:02:43.347Z,15.98
2023-05-01T10:05:15.711Z,16.00
2023-05-01T10:08:04.649Z,16.08
2023-05-01T10:10:35.206Z,16.12
2023-05-01T10:13:18.934Z,16.14
2023-05-01T10:15:51.652Z,16.19
2023-05-01T10:18:23.058Z,16.25
2023-05-01T10:20:54.463Z,16.33
2023-05-01T10:23:26.486Z,16.36
2023-05-01T10:26:00.752Z,16.44
2023-05-01T10:28:32.323Z,16.60
2023-05-01T10:31:03.822Z,16.70
2023-05-01T10:33:34.560Z,16.84
2023-05-01T10:36:05.772Z,17.02
2023-05-01T10:38:36.912Z,17.31
2023-05-01T10:41:07.747Z,17.52
2023-05-01T10:43:37.495Z,17.68
2023-05-01T10:46:12.317Z,17.89
2023-05-01T10:48:46.093Z,18.13
2023-05-01T10:51:29.000Z,18.52
2023-05-01T10:54:15.021Z,18.64
2023-05-01T10:56:45.735Z,18.94
2023-05-01T10:59:17.099Z,19.29
2023-05-01T11:01:55.288Z,19.43
2023-05-01T11:04:31.624Z,19.54
2023-05-01T11:07:08.917Z,19.99
2023-05-01T11:09:40.799Z,20.86
2023-05-01T11:12:13.496Z,24.35
2023-05-01T11:14:59.752Z,26.65
2023-05-01T11:17:48.939Z,27.69
2023-05-01T11:20:28.771Z,28.07
2023-05-01T11:23:00.689Z,25.49
2023-05-01T11:25:34.147Z,27.81
2023-05-01T11:28:08.297Z,28.94
2023-05-01T11:30:42.288Z,29.34
2023-05-01T11:33:13.710Z,29.96
2023-05-01T11:35:45.009Z,30.53
2023-05-01T11:38:21.395Z,30.82
2023-05-01T11:40:57.830Z,30.95
2023-05-01T11:43:30.086Z,31.14
2023-05-01T11:46:04.013Z,31.29
2023-05-01T11:48:34.595Z,31.50
2023-05-01T11:51:14.536Z,31.78
2023-05-01T11:53:45.228Z,31.67
2023-05-01T11:56:26.966Z,31.43
2023-05-01T11:59:00.455Z,31.94
2023-05-01T12:01:38.264Z,32.93
2023-05-01T12:04:10.176Z,32.72
2023-05-01T12:06:47.393Z,31.36
2023-05-01T12:09:19.073Z,28.51
2023-05-01T12:11:53.303Z,27.03
2023-05-01T12:14:25.769Z,27.08
2023-05-01T12:16:56.749Z,28.18
2023-05-01T12:19:30.658Z,31.72
2023-05-01T12:22:09.244Z,32.49
2023-05-01T12:24:39.500Z,30.59
2023-05-01T12:27:11.114Z,32.28
2023-05-01T12:29:48.286Z,31.18
2023-05-01T12:32:18.835Z,32.72
2023-05-01T12:34:49.695Z,31.81
2023-05-01T12:37:20.564Z,33.17
2023-05-01T12:39:50.834Z,32.65
2023-05-01T12:42:20.617Z,33.62
2023-05-01T12:45:02.318Z,33.77
2023-05-01T12:47:39.289Z,32.49
2023-05-01T12:50:10.044Z,33.04
2023-05-01T12:52:40.566Z,32.72
2023-05-01T12:55:11.624Z,33.30
2023-05-01T12:57:58.065Z,32.69
2023-05-01T13:00:28.214Z,30.51
2023-05-01T13:03:06.446Z,30.24
2023-05-01T13:05:37.262Z,31.84
2023-05-01T13:08:07.959Z,31.46
2023-05-01T13:10:38.199Z,30.78
2023-05-01T13:13:08.089Z,31.05
2023-05-01T13:15:39.809Z,31.11
2023-05-01T13:18:11.046Z,31.02
2023-05-01T13:20:42.712Z,31.07
2023-05-01T13:23:14.205Z,31.35
2023-05-01T13:25:44.393Z,31.46
2023-05-01T13:28:21.819Z,31.94
2023-05-01T13:30:55.197Z,31.54
2023-05-01T13:33:25.240Z,31.30
2023-05-01T13:35:54.965Z,31.57
2023-05-01T13:38:26.305Z,31.74
2023-05-01T13:40:57.101Z,30.75
2023-05-01T13:43:27.221Z,30.65
2023-05-01T13:46:01.482Z,30.98
2023-05-01T13:48:33.271Z,31.53
2023-05-01T13:51:03.650Z,31.40
2023-05-01T13:53:33.626Z,31.19
2023-05-01T13:56:08.766Z,30.05
2023-05-01T13:58:38.438Z,30.60
2023-05-01T14:01:22.977Z,30.67
2023-05-01T14:04:01.602Z,30.47
2023-05-01T14:06:33.659Z,30.27
2023-05-01T14:09:05.133Z,29.51
2023-05-01T14:11:35.475Z,28.97
2023-05-01T14:14:06.139Z,29.35
2023-05-01T14:16:36.486Z,29.89
2023-05-01T14:19:07.041Z,30.19
2023-05-01T14:21:43.959Z,30.08
2023-05-01T14:24:15.320Z,30.08
2023-05-01T14:26:46.409Z,30.82
2023-05-01T14:29:24.121Z,30.37
2023-05-01T14:31:57.607Z,30.64
2023-05-01T14:34:29.256Z,29.68
2023-05-01T14:37:00.469Z,29.72
2023-05-01T14:39:34.701Z,29.83
2023-05-01T14:42:07.252Z,29.66
2023-05-01T14:44:44.498Z,30.47
2023-05-01T14:47:22.417Z,31.16
2023-05-01T14:49:56.394Z,30.70
2023-05-01T14:52:27.670Z,30.48
2023-05-01T14:54:59.490Z,30.54
2023-05-01T14:57:30.132Z,31.07
2023-05-01T14:59:59.951Z,30.98
2023-05-01T15:02:32.053Z,31.28
2023-05-01T15:05:02.759Z,31.53
2023-05-01T15:07:34.932Z,31.72
2023-05-01T15:10:06.044Z,31.74
2023-05-01T15:12:36.791Z,31.67
2023-05-01T15:15:09.518Z,31.51
2023-05-01T15:17:39.828Z,31.39
2023-05-01T15:20:10.981Z,31.78
2023-05-01T15:22:41.585Z,31.69
2023-05-01T15:25:12.884Z,32.37
2023-05-01T15:27:44.631Z,32.16
2023-05-01T15:30:16.683Z,31.03
2023-05-01T15:32:47.712Z,30.72
2023-05-01T15:35:18.683Z,30.50
2023-05-01T15:37:49.171Z,30.51
2023-05-01T15:40:19.512Z,30.68
2023-05-01T15:42:49.762Z,30.98
2023-05-01T15:45:21.021Z,30.95
2023-05-01T15:47:51.217Z,30.40
2023-05-01T15:50:22.228Z,29.71
2023-05-01T15:52:53.776Z,29.81
2023-05-01T15:55:24.983Z,30.27
2023-05-01T15:57:55.861Z,30.17
2023-05-01T16:00:26.301Z,29.44
2023-05-01T16:02:58.364Z,29.04
2023-05-01T16:05:29.402Z,28.42
2023-05-01T16:08:01.770Z,28.51
2023-05-01T16:10:38.316Z,28.28
2023-05-01T16:13:09.967Z,27.73
2023-05-01T16:15:41.603Z,27.57
2023-05-01T16:18:21.920Z,27.80
2023-05-01T16:20:55.852Z,27.74
2023-05-01T16:23:27.959Z,27.33
2023-05-01T16:25:58.887Z,28.29
2023-05-01T16:28:29.336Z,27.98
2023-05-01T16:30:59.155Z,28.04
2023-05-01T16:33:31.075Z,28.73
2023-05-01T16:36:01.915Z,29.48
2023-05-01T16:38:34.777Z,28.63
2023-05-01T16:41:05.409Z,28.45
2023-05-01T16:43:35.686Z,28.07
2023-05-01T16:46:06.277Z,28.00
2023-05-01T16:48:37.589Z,27.35
2023-05-01T16:51:08.486Z,27.05
2023-05-01T16:53:39.183Z,27.39
2023-05-01T16:56:11.385Z,27.03
2023-05-01T16:58:41.635Z,26.54
2023-05-01T17:01:11.909Z,26.94
2023-05-01T17:03:44.075Z,27.32
2023-05-01T17:06:14.997Z,27.56
2023-05-01T17:08:45.571Z,28.80
2023-05-01T17:11:16.784Z,29.61
2023-05-01T17:13:47.527Z,29.82
2023-05-01T17:16:17.780Z,29.50
2023-05-01T17:18:48.392Z,29.25
2023-05-01T17:21:18.263Z,28.66
2023-05-01T17:23:49.000Z,29.54
2023-05-01T17:26:19.860Z,28.09
2023-05-01T17:28:51.691Z,28.65
2023-05-01T17:31:22.704Z,29.89
2023-05-01T17:33:53.172Z,30.92
2023-05-01T17:36:25.070Z,31.70
2023-05-01T17:38:55.982Z,31.62
2023-05-01T17:41:27.656Z,31.81
2023-05-01T17:44:01.119Z,31.97
2023-05-01T17:46:32.037Z,32.23
2023-05-01T17:49:04.163Z,32.46
2023-05-01T17:51:34.941Z,32.37
2023-05-01T17:54:05.178Z,32.03
2023-05-01T17:56:36.143Z,31.60
2023-05-01T17:59:06.457Z,31.22
2023-05-01T18:01:36.854Z,30.27
2023-05-01T18:04:07.950Z,30.12
2023-05-01T18:06:38.915Z,29.37
2023-05-01T18:09:11.143Z,29.41
2023-05-01T18:11:41.533Z,29.43
2023-05-01T18:14:11.390Z,29.54
2023-05-01T18:16:42.639Z,30.40
2023-05-01T18:19:12.951Z,30.77
2023-05-01T18:21:44.197Z,30.92
2023-05-01T18:24:15.542Z,31.43
2023-05-01T18:26:45.824Z,32.27
2023-05-01T18:29:16.296Z,32.80
2023-05-01T18:31:48.069Z,32.34
2023-05-01T18:34:20.338Z,31.18
2023-05-01T18:36:53.427Z,29.82
2023-05-01T18:39:24.187Z,28.83
2023-05-01T18:41:56.956Z,28.31
2023-05-01T18:44:26.990Z,29.96
2023-05-01T18:46:56.805Z,30.71
2023-05-01T18:49:27.394Z,30.85
2023-05-01T18:51:57.222Z,30.17
2023-05-01T18:54:28.775Z,30.90
2023-05-01T18:57:00.871Z,30.85
2023-05-01T18:59:32.216Z,31.14
2023-05-01T19:02:03.297Z,30.75
2023-05-01T19:04:49.364Z,29.27
2023-05-01T19:07:26.743Z,27.08
2023-05-01T19:09:58.893Z,25.88
2023-05-01T19:12:32.063Z,25.23
2023-05-01T19:15:02.362Z,24.77
2023-05-01T19:17:33.658Z,24.45
2023-05-01T19:20:05.429Z,24.30
2023-05-01T19:22:36.969Z,24.05
2023-05-01T19:25:07.408Z,23.88
2023-05-01T19:27:37.670Z,23.71
2023-05-01T19:30:09.129Z,23.64
2023-05-01T19:32:40.055Z,23.56
2023-05-01T19:35:13.370Z,23.49
2023-05-01T19:37:43.568Z,23.43
2023-05-01T19:40:14.146Z,23.33
2023-05-01T19:42:45.949Z,23.29
2023-05-01T19:45:17.758Z,23.34
2023-05-01T19:47:48.234Z,23.39
2023-05-01T19:50:21.696Z,23.34
2023-05-01T19:52:52.991Z,23.36
2023-05-01T19:55:22.983Z,23.30
2023-05-01T19:57:55.344Z,23.24
2023-05-01T20:00:30.114Z,23.08
2023-05-01T20:03:01.848Z,22.98
2023-05-01T20:05:33.687Z,22.84
2023-05-01T20:08:05.136Z,22.67
2023-05-01T20:10:36.218Z,22.52
2023-05-01T20:13:12.612Z,22.41
2023-05-01T20:15:44.251Z,22.31
2023-05-01T20:18:15.519Z,22.29
2023-05-01T20:20:46.421Z,22.17
2023-05-01T20:23:20.875Z,22.16
2023-05-01T20:25:54.409Z,22.04
2023-05-01T20:28:24.660Z,21.96
2023-05-01T20:30:55.528Z,21.88
2023-05-01T20:33:27.076Z,21.79
2023-05-01T20:35:57.180Z,21.72
2023-05-01T20:38:29.070Z,21.62
2023-05-01T20:40:59.896Z,21.55
2023-05-01T20:43:30.949Z,21.44
2023-05-01T20:46:01.095Z,21.32
2023-05-01T20:48:31.005Z,21.24
2023-05-01T20:51:01.555Z,21.15
2023-05-01T20:53:32.236Z,21.05
2023-05-01T20:56:04.101Z,20.98
2023-05-01T20:58:34.045Z,20.91
2023-05-01T21:01:11.380Z,20.86
2023-05-01T21:03:43.016Z,20.80
2023-05-01T21:06:17.214Z,20.70
2023-05-01T21:08:48.895Z,20.66
2023-05-01T21:11:19.191Z,20.60
2023-05-01T21:14:21.596Z,20.53
2023-05-01T21:16:55.626Z,20.47
2023-05-01T21:19:25.865Z,20.47
2023-05-01T21:21:56.568Z,20.43
2023-05-01T21:24:27.741Z,20.38
2023-05-01T21:26:58.823Z,20.35
2023-05-01T21:29:30.056Z,20.35
2023-05-01T21:32:05.584Z,20.30
2023-05-01T21:34:37.067Z,20.28
2023-05-01T21:37:11.678Z,20.26
2023-05-01T21:39:42.511Z,20.25
2023-05-01T21:42:15.900Z,20.25
2023-05-01T21:44:46.331Z,20.28
2023-05-01T21:47:17.989Z,20.29
2023-05-01T21:49:48.682Z,20.29
2023-05-01T21:52:19.622Z,20.26
2023-05-01T21:54:50.363Z,20.30
2023-05-01T21:57:21.195Z,20.30
2023-05-01T21:59:52.073Z,20.33
2023-05-01T22:02:22.341Z,20.32
2023-05-01T22:04:56.136Z,20.29
2023-05-01T22:07:28.247Z,20.26
2023-05-01T22:10:00.671Z,20.22
2023-05-01T22:12:31.287Z,20.21
2023-05-01T22:15:01.386Z,20.15
2023-05-01T22:17:32.659Z,20.14
2023-05-01T22:20:04.278Z,20.09
2023-05-01T22:22:37.184Z,20.11
2023-05-01T22:25:10.425Z,20.07
2023-05-01T22:27:40.877Z,20.02
2023-05-01T22:30:12.403Z,20.01
2023-05-01T22:32:44.117Z,19.99
2023-05-01T22:35:14.795Z,20.01
2023-05-01T22:37:45.374Z,19.97
2023-05-01T22:40:17.545Z,20.02
2023-05-01T22:42:50.295Z,20.02
2023-05-01T22:45:20.988Z,20.01
2023-05-01T22:47:51.449Z,19.99
2023-05-01T22:50:23.004Z,20.02
2023-05-01T22:52:54.456Z,19.97
2023-05-01T22:55:25.119Z,19.97
2023-05-01T22:57:56.334Z,19.94
2023-05-01T23:00:37.108Z,19.94
2023-05-01T23:03:13.498Z,19.89
2023-05-01T23:05:47.217Z,19.89
2023-05-01T23:08:23.762Z,19.88
2023-05-01T23:11:08.307Z,19.87
2023-05-01T23:13:52.030Z,19.82
2023-05-01T23:16:22.814Z,19.81
2023-05-01T23:18:53.652Z,19.82
2023-05-01T23:21:24.707Z,19.79
2023-05-01T23:24:11.111Z,19.77
2023-05-01T23:26:46.339Z,19.77
2023-05-01T23:29:20.453Z,19.75
2023-05-01T23:32:09.844Z,19.74
2023-05-01T23:34:45.065Z,19.71
2023-05-01T23:37:37.615Z,19.70
2023-05-01T23:40:36.341Z,19.68
2023-05-01T23:43:11.452Z,19.68
2023-05-01T23:45:43.215Z,19.68
2023-05-01T23:48:14.958Z,19.66
2023-05-01T23:50:48.884Z,19.61
2023-05-01T23:53:35.323Z,19.63
2023-05-01T23:56:07.594Z,19.61
2023-05-01T23:58:41.462Z,19.56
